createdAt,value
2019-03-24T00:00:51.297Z,63.00
2019-03-24T00:03:19.578Z,56.17
2019-03-24T00:05:48.120Z,62.03
2019-03-24T00:08:16.541Z,61.93
2019-03-24T00:10:44.849Z,58.30
2019-03-24T00:13:13.374Z,60.67
2019-03-24T00:15:41.609Z,61.00
2019-03-24T00:18:10.274Z,61.80
2019-03-24T00:20:38.672Z,65.67
2019-03-24T00:23:07.213Z,55.47
2019-03-24T00:25:36.138Z,61.67
2019-03-24T00:28:04.777Z,64.57
2019-03-24T00:30:33.291Z,62.17
2019-03-24T00:33:02.011Z,68.77
2019-03-24T00:35:31.130Z,65.47
2019-03-24T00:37:59.509Z,62.43
2019-03-24T00:40:28.233Z,66.50
2019-03-24T00:42:57.620Z,64.33
2019-03-24T00:45:36.257Z,61.90
2019-03-24T00:47:55.688Z,66.57
2019-03-24T00:50:24.194Z,79.77
2019-03-24T00:52:52.195Z,60.93
2019-03-24T00:55:20.935Z,68.33
2019-03-24T00:57:49.472Z,69.73
2019-03-24T01:00:27.341Z,72.40
2019-03-24T01:02:55.886Z,66.87
2019-03-24T01:05:24.324Z,68.77
2019-03-24T01:07:53.650Z,72.67
2019-03-24T01:10:21.878Z,67.03
2019-03-24T01:12:50.497Z,67.70
2019-03-24T01:15:19.393Z,74.07
2019-03-24T01:17:47.662Z,63.67
2019-03-24T01:20:16.331Z,68.23
2019-03-24T01:22:45.363Z,65.67
2019-03-24T01:25:13.771Z,82.13
2019-03-24T01:27:42.276Z,63.77
2019-03-24T01:30:10.873Z,47.17
2019-03-24T01:32:39.068Z,78.90
2019-03-24T01:35:08.307Z,76.00
2019-03-24T01:37:37.004Z,80.40
2019-03-24T01:40:05.433Z,62.10
2019-03-24T01:42:33.971Z,72.73
2019-03-24T01:45:02.167Z,75.73
2019-03-24T01:47:30.551Z,78.27
2019-03-24T01:49:59.242Z,70.20
2019-03-24T01:52:27.929Z,77.83
2019-03-24T01:54:57.384Z,78.70
2019-03-24T01:57:27.852Z,74.07
2019-03-24T01:59:56.346Z,76.33
2019-03-24T02:02:25.248Z,82.93
2019-03-24T02:04:53.629Z,80.10
2019-03-24T02:07:22.569Z,82.47
2019-03-24T02:09:51.208Z,85.33
2019-03-24T02:12:19.467Z,78.03
2019-03-24T02:14:47.956Z,78.60
2019-03-24T02:17:16.390Z,81.43
2019-03-24T02:19:45.259Z,76.23
2019-03-24T02:22:13.598Z,80.67
2019-03-24T02:24:42.703Z,76.13
2019-03-24T02:27:11.611Z,76.83
2019-03-24T02:29:39.958Z,82.30
2019-03-24T02:32:09.532Z,79.20
2019-03-24T02:34:38.600Z,75.20
2019-03-24T02:37:06.825Z,71.47
2019-03-24T02:39:35.515Z,87.50
2019-03-24T02:42:04.356Z,80.07
2019-03-24T02:44:32.541Z,74.67
2019-03-24T02:47:01.302Z,82.97
2019-03-24T02:49:29.654Z,79.27
2019-03-24T02:51:58.103Z,85.43
2019-03-24T02:54:26.713Z,80.97
2019-03-24T02:56:55.128Z,80.47
2019-03-24T02:59:23.806Z,69.20
2019-03-24T03:01:52.475Z,74.63
2019-03-24T03:04:21.545Z,80.40
2019-03-24T03:06:50.099Z,80.60
2019-03-24T03:09:19.095Z,79.37
2019-03-24T03:11:47.565Z,83.83
2019-03-24T03:14:15.810Z,71.73
2019-03-24T03:16:44.517Z,87.60
2019-03-24T03:19:13.183Z,88.43
2019-03-24T03:21:42.115Z,81.30
2019-03-24T03:24:11.238Z,66.87
2019-03-24T03:26:39.692Z,93.87
2019-03-24T03:29:08.288Z,83.90
2019-03-24T03:31:36.634Z,86.37
2019-03-24T03:34:05.322Z,91.80
2019-03-24T03:36:34.334Z,89.70
2019-03-24T03:39:04.787Z,90.47
2019-03-24T03:41:33.461Z,98.87
2019-03-24T03:44:02.756Z,101.70
2019-03-24T03:46:31.240Z,84.37
2019-03-24T03:49:00.233Z,84.50
2019-03-24T03:51:28.852Z,100.93
2019-03-24T03:53:59.256Z,97.20
2019-03-24T03:56:27.857Z,103.30
2019-03-24T03:58:56.323Z,88.43
2019-03-24T04:01:24.461Z,98.80
2019-03-24T04:03:53.257Z,95.30
2019-03-24T04:06:21.675Z,94.63
2019-03-24T04:08:50.011Z,90.27
2019-03-24T04:11:18.245Z,94.77
2019-03-24T04:13:46.623Z,87.63
2019-03-24T04:16:15.254Z,100.60
2019-03-24T04:18:43.614Z,100.23
2019-03-24T04:21:11.645Z,100.77
2019-03-24T04:23:40.029Z,87.30
2019-03-24T04:26:08.267Z,93.70
2019-03-24T04:28:37.510Z,93.27
2019-03-24T04:31:06.450Z,94.03
2019-03-24T04:33:35.182Z,93.10
2019-03-24T04:36:03.843Z,99.60
2019-03-24T04:38:32.326Z,100.20
2019-03-24T04:41:00.705Z,97.57
2019-03-24T04:43:30.060Z,85.70
2019-03-24T04:45:58.882Z,106.40
2019-03-24T04:48:27.756Z,92.23
2019-03-24T04:50:56.231Z,92.72
2019-03-24T04:53:24.550Z,90.17
2019-03-24T04:55:53.208Z,93.97
2019-03-24T04:58:21.623Z,100.97
2019-03-24T05:00:50.485Z,105.17
2019-03-24T05:03:19.267Z,96.87
2019-03-24T05:05:48.030Z,85.53
2019-03-24T05:08:17.637Z,102.53
2019-03-24T05:10:46.210Z,95.60
2019-03-24T05:13:15.004Z,98.37
2019-03-24T05:15:43.660Z,104.87
2019-03-24T05:18:12.244Z,103.10
2019-03-24T05:20:41.558Z,107.83
2019-03-24T05:23:09.841Z,94.50
2019-03-24T05:25:38.558Z,106.07
2019-03-24T05:28:07.315Z,100.43
2019-03-24T05:30:36.861Z,105.73
2019-03-24T05:33:05.409Z,100.87
2019-03-24T05:35:33.668Z,107.13
2019-03-24T05:38:02.815Z,106.77
2019-03-24T05:40:31.693Z,97.63
2019-03-24T05:42:59.695Z,95.97
2019-03-24T05:45:27.685Z,109.10
2019-03-24T05:47:56.730Z,101.17
2019-03-24T05:50:27.103Z,104.53
2019-03-24T05:52:55.825Z,95.87
2019-03-24T05:55:25.021Z,131.73
2019-03-24T05:57:53.893Z,94.70
2019-03-24T06:00:23.086Z,117.27
2019-03-24T06:02:51.890Z,117.33
2019-03-24T06:05:20.100Z,123.57
2019-03-24T06:07:48.677Z,125.63
2019-03-24T06:10:17.025Z,138.93
2019-03-24T06:12:46.729Z,119.73
2019-03-24T06:15:18.186Z,123.73
2019-03-24T06:17:48.072Z,112.63
2019-03-24T06:20:16.772Z,114.93
2019-03-24T06:22:45.336Z,105.40
2019-03-24T06:25:14.220Z,129.13
2019-03-24T06:27:42.485Z,112.60
2019-03-24T06:30:13.000Z,108.43
2019-03-24T06:32:42.811Z,113.17
2019-03-24T06:35:11.290Z,113.23
2019-03-24T06:37:40.904Z,100.83
2019-03-24T06:40:10.334Z,108.63
2019-03-24T06:42:39.115Z,95.47
2019-03-24T06:45:08.917Z,101.00
2019-03-24T06:47:38.678Z,95.53
2019-03-24T06:50:07.339Z,93.07
2019-03-24T06:52:36.031Z,93.67
2019-03-24T06:55:05.117Z,81.43
2019-03-24T06:57:34.461Z,91.87
2019-03-24T07:00:03.719Z,87.63
2019-03-24T07:02:31.963Z,76.17
2019-03-24T07:05:00.582Z,89.33
2019-03-24T07:07:29.057Z,82.67
2019-03-24T07:09:57.536Z,75.80
2019-03-24T07:12:26.159Z,78.33
2019-03-24T07:14:54.652Z,70.90
2019-03-24T07:17:23.321Z,77.10
2019-03-24T07:19:51.727Z,72.83
2019-03-24T07:22:20.594Z,78.07
2019-03-24T07:24:48.952Z,72.93
2019-03-24T07:27:17.459Z,64.43
2019-03-24T07:29:46.077Z,65.93
2019-03-24T07:32:15.581Z,62.23
2019-03-24T07:34:44.176Z,66.10
2019-03-24T07:37:12.763Z,62.20
2019-03-24T07:39:41.329Z,60.77
2019-03-24T07:42:09.860Z,61.60
2019-03-24T07:44:39.221Z,55.60
2019-03-24T07:47:12.767Z,60.03
2019-03-24T07:49:41.716Z,55.87
2019-03-24T07:52:10.340Z,58.53
2019-03-24T07:54:39.373Z,56.90
2019-03-24T07:57:07.722Z,57.43
2019-03-24T07:59:36.505Z,53.63
2019-03-24T08:02:05.132Z,53.07
2019-03-24T08:04:35.016Z,55.83
2019-03-24T08:07:03.808Z,51.17
2019-03-24T08:09:32.148Z,50.00
2019-03-24T08:12:00.782Z,53.53
2019-03-24T08:14:28.912Z,49.23
2019-03-24T08:16:57.651Z,49.37
2019-03-24T08:19:25.997Z,49.00
2019-03-24T08:21:54.679Z,48.60
2019-03-24T08:24:22.997Z,45.53
2019-03-24T08:26:51.676Z,53.50
2019-03-24T08:29:20.154Z,48.03
2019-03-24T08:31:48.471Z,45.93
2019-03-24T08:34:16.889Z,47.43
2019-03-24T08:36:45.094Z,46.50
2019-03-24T08:39:13.176Z,47.83
2019-03-24T08:41:41.851Z,47.30
2019-03-24T08:44:10.370Z,46.83
2019-03-24T08:46:38.659Z,46.33
2019-03-24T08:49:07.286Z,48.27
2019-03-24T08:51:35.741Z,45.53
2019-03-24T08:54:04.195Z,48.27
2019-03-24T08:56:32.911Z,47.20
2019-03-24T08:59:01.516Z,47.63
2019-03-24T09:01:29.618Z,44.10
2019-03-24T09:03:57.972Z,46.90
2019-03-24T09:06:26.459Z,47.23
2019-03-24T09:08:54.991Z,45.13
2019-03-24T09:11:31.286Z,47.13
2019-03-24T09:13:55.042Z,44.00
2019-03-24T09:16:23.559Z,43.23
2019-03-24T09:18:53.131Z,46.37
2019-03-24T09:21:21.933Z,44.70
2019-03-24T09:23:50.488Z,45.17
2019-03-24T09:26:19.262Z,43.73
2019-03-24T09:28:47.871Z,44.03
2019-03-24T09:31:16.554Z,42.53
2019-03-24T09:33:45.031Z,43.80
2019-03-24T09:36:13.631Z,39.97
2019-03-24T09:38:42.511Z,46.87
2019-03-24T09:41:11.888Z,48.00
2019-03-24T09:43:40.569Z,42.80
2019-03-24T09:46:09.261Z,38.60
2019-03-24T09:48:37.588Z,44.00
2019-03-24T09:51:06.299Z,42.10
2019-03-24T09:53:35.314Z,49.67
2019-03-24T09:56:03.973Z,47.63
2019-03-24T09:58:32.211Z,43.97
2019-03-24T10:01:00.790Z,40.93
2019-03-24T10:03:29.741Z,37.73
2019-03-24T10:05:58.821Z,39.03
2019-03-24T10:08:27.349Z,38.80
2019-03-24T10:10:55.680Z,40.37
2019-03-24T10:13:24.205Z,37.77
2019-03-24T10:15:52.779Z,38.47
2019-03-24T10:18:21.142Z,37.57
2019-03-24T10:20:50.274Z,38.33
2019-03-24T10:23:19.537Z,37.93
2019-03-24T10:25:47.932Z,37.67
2019-03-24T10:28:16.849Z,34.53
2019-03-24T10:30:45.582Z,36.90
2019-03-24T10:33:13.779Z,35.10
2019-03-24T10:35:43.022Z,36.43
2019-03-24T10:38:11.360Z,39.57
2019-03-24T10:40:39.555Z,38.97
2019-03-24T10:43:07.740Z,36.73
2019-03-24T10:45:36.593Z,38.07
2019-03-24T10:48:04.876Z,36.07
2019-03-24T10:50:33.398Z,36.73
2019-03-24T10:53:02.231Z,36.57
2019-03-24T10:55:31.238Z,39.70
2019-03-24T10:58:00.126Z,38.37
2019-03-24T11:00:40.278Z,35.27
2019-03-24T11:03:08.861Z,40.00
2019-03-24T11:05:37.470Z,37.80
2019-03-24T11:08:05.880Z,36.37
2019-03-24T11:10:34.800Z,33.67
2019-03-24T11:13:03.500Z,32.77
2019-03-24T11:15:31.834Z,33.57
2019-03-24T11:18:00.061Z,33.03
2019-03-24T11:20:28.463Z,35.03
2019-03-24T11:22:56.681Z,39.03
2019-03-24T11:25:25.440Z,42.67
2019-03-24T11:27:54.480Z,33.30
2019-03-24T11:30:23.436Z,31.70
2019-03-24T11:32:51.667Z,33.00
2019-03-24T11:35:19.826Z,32.43
2019-03-24T11:37:48.023Z,33.93
2019-03-24T11:40:16.601Z,32.23
2019-03-24T11:42:44.842Z,32.43
2019-03-24T11:45:14.372Z,36.70
2019-03-24T11:47:43.147Z,32.90
2019-03-24T11:50:12.046Z,32.40
2019-03-24T11:52:40.766Z,37.83
2019-03-24T11:55:11.092Z,33.33
2019-03-24T11:57:39.649Z,36.60
2019-03-24T12:00:09.909Z,31.00
2019-03-24T12:02:38.842Z,33.13
2019-03-24T12:05:07.774Z,36.90
2019-03-24T12:07:36.132Z,33.27
2019-03-24T12:10:07.420Z,33.67
2019-03-24T12:12:36.138Z,30.93
2019-03-24T12:15:05.594Z,31.90
2019-03-24T12:17:34.298Z,30.90
2019-03-24T12:20:02.950Z,32.53
2019-03-24T12:22:31.472Z,37.83
2019-03-24T12:24:59.483Z,37.57
2019-03-24T12:27:27.697Z,30.40
2019-03-24T12:29:55.795Z,33.13
2019-03-24T12:32:24.395Z,36.73
2019-03-24T12:34:53.188Z,33.53
2019-03-24T12:37:22.021Z,34.67
2019-03-24T12:39:50.870Z,33.37
2019-03-24T12:42:19.619Z,29.40
2019-03-24T12:44:47.544Z,32.47
2019-03-24T12:47:16.496Z,33.83
2019-03-24T12:49:45.505Z,34.40
2019-03-24T12:52:14.395Z,29.80
2019-03-24T12:54:43.025Z,31.10
2019-03-24T12:57:11.515Z,30.63
2019-03-24T12:59:45.127Z,30.77
2019-03-24T13:02:14.009Z,35.23
2019-03-24T13:04:42.529Z,35.20
2019-03-24T13:07:11.076Z,34.80
2019-03-24T13:09:39.739Z,31.43
2019-03-24T13:12:08.396Z,32.60
2019-03-24T13:14:36.611Z,33.40
2019-03-24T13:17:05.443Z,30.43
2019-03-24T13:19:36.019Z,30.60
2019-03-24T13:22:04.870Z,30.37
2019-03-24T13:24:33.126Z,26.90
2019-03-24T13:27:02.195Z,32.90
2019-03-24T13:29:31.259Z,29.87
2019-03-24T13:31:59.938Z,30.03
2019-03-24T13:34:28.225Z,30.27
2019-03-24T13:36:56.562Z,31.00
2019-03-24T13:39:25.269Z,27.67
2019-03-24T13:41:53.883Z,29.40
2019-03-24T13:44:22.370Z,26.60
2019-03-24T13:46:51.473Z,26.13
2019-03-24T13:49:20.569Z,28.03
2019-03-24T13:51:49.108Z,28.43
2019-03-24T13:54:17.564Z,28.30
2019-03-24T13:56:46.483Z,26.07
2019-03-24T13:59:15.285Z,28.20
2019-03-24T14:01:43.641Z,31.13
2019-03-24T14:04:12.211Z,27.33
2019-03-24T14:06:40.593Z,28.50
2019-03-24T14:09:10.048Z,30.37
2019-03-24T14:11:39.813Z,27.20
2019-03-24T14:14:08.386Z,28.83
2019-03-24T14:16:36.966Z,29.77
2019-03-24T14:19:05.246Z,30.20
2019-03-24T14:21:34.071Z,28.40
2019-03-24T14:24:02.657Z,29.60
2019-03-24T14:26:30.890Z,25.90
2019-03-24T14:28:59.384Z,26.57
2019-03-24T14:31:27.659Z,27.53
2019-03-24T14:33:56.227Z,29.80
2019-03-24T14:36:25.197Z,27.33
2019-03-24T14:38:53.471Z,28.90
2019-03-24T14:41:21.910Z,28.47
2019-03-24T14:43:50.652Z,26.07
2019-03-24T14:46:19.197Z,28.87
2019-03-24T14:48:47.762Z,28.50
2019-03-24T14:51:16.348Z,28.70
2019-03-24T14:53:44.914Z,28.97
2019-03-24T14:56:15.138Z,27.90
2019-03-24T14:58:43.933Z,26.40
2019-03-24T15:01:12.289Z,24.23
2019-03-24T15:03:40.697Z,24.63
2019-03-24T15:06:11.124Z,27.00
2019-03-24T15:08:40.155Z,24.37
2019-03-24T15:11:08.960Z,26.13
2019-03-24T15:13:38.220Z,22.80
2019-03-24T15:16:07.534Z,24.80
2019-03-24T15:18:36.455Z,25.93
2019-03-24T15:21:06.153Z,27.37
2019-03-24T15:23:34.498Z,28.67
2019-03-24T15:26:03.115Z,25.57
2019-03-24T15:28:31.897Z,24.40
2019-03-24T15:31:00.797Z,23.40
2019-03-24T15:33:29.177Z,25.40
2019-03-24T15:35:57.880Z,25.93
2019-03-24T15:38:26.081Z,26.97
2019-03-24T15:40:54.596Z,25.43
2019-03-24T15:43:22.818Z,23.57
2019-03-24T15:45:52.309Z,25.60
2019-03-24T15:48:20.754Z,23.87
2019-03-24T15:50:49.591Z,24.80
2019-03-24T15:53:17.704Z,23.80
2019-03-24T15:55:46.066Z,22.67
2019-03-24T15:58:15.201Z,19.17
2019-03-24T16:00:47.238Z,17.57
2019-03-24T16:03:16.037Z,20.73
2019-03-24T16:05:45.797Z,20.03
2019-03-24T16:08:14.029Z,19.13
2019-03-24T16:10:42.263Z,20.97
2019-03-24T16:13:10.734Z,19.37
2019-03-24T16:15:40.096Z,16.50
2019-03-24T16:18:08.949Z,18.20
2019-03-24T16:20:37.150Z,18.27
2019-03-24T16:23:05.540Z,19.27
2019-03-24T16:25:33.956Z,18.93
2019-03-24T16:28:02.318Z,18.97
2019-03-24T16:30:30.952Z,15.27
2019-03-24T16:32:59.642Z,16.73
2019-03-24T16:35:27.974Z,17.27
2019-03-24T16:37:57.092Z,18.10
2019-03-24T16:40:26.427Z,19.00
2019-03-24T16:42:55.264Z,22.63
2019-03-24T16:45:23.492Z,18.87
2019-03-24T16:47:52.469Z,20.03
2019-03-24T16:50:20.796Z,20.37
2019-03-24T16:52:49.339Z,17.33
2019-03-24T16:55:17.704Z,17.07
2019-03-24T16:57:46.616Z,14.87
2019-03-24T17:00:15.254Z,17.63
2019-03-24T17:02:43.439Z,21.67
2019-03-24T17:05:12.283Z,20.33
2019-03-24T17:07:40.795Z,23.87
2019-03-24T17:10:09.834Z,20.02
2019-03-24T17:12:38.399Z,18.40
2019-03-24T17:15:07.897Z,16.43
2019-03-24T17:17:36.457Z,18.17
2019-03-24T17:20:05.024Z,19.53
2019-03-24T17:22:33.686Z,19.00
2019-03-24T17:25:02.219Z,20.10
2019-03-24T17:27:31.190Z,19.10
2019-03-24T17:29:59.568Z,17.97
2019-03-24T17:32:28.254Z,19.73
2019-03-24T17:34:56.947Z,18.23
2019-03-24T17:37:25.938Z,19.27
2019-03-24T17:39:54.580Z,19.03
2019-03-24T17:42:22.736Z,19.20
2019-03-24T17:44:50.817Z,14.77
2019-03-24T17:47:19.081Z,20.30
2019-03-24T17:49:48.719Z,16.57
2019-03-24T17:52:17.615Z,15.40
2019-03-24T17:54:45.730Z,13.83
2019-03-24T17:57:14.375Z,14.57
2019-03-24T17:59:43.485Z,16.70
2019-03-24T18:02:14.521Z,13.50
2019-03-24T18:04:42.617Z,13.47
2019-03-24T18:07:11.201Z,15.17
2019-03-24T18:09:39.786Z,17.17
2019-03-24T18:12:08.279Z,15.00
2019-03-24T18:14:36.674Z,11.93
2019-03-24T18:17:05.246Z,14.60
2019-03-24T18:19:33.968Z,14.40
2019-03-24T18:22:11.260Z,14.67
2019-03-24T18:24:32.958Z,12.83
2019-03-24T18:27:02.730Z,14.23
2019-03-24T18:29:31.256Z,14.23
2019-03-24T18:31:59.357Z,13.33
2019-03-24T18:34:27.833Z,13.47
2019-03-24T18:36:56.438Z,15.00
2019-03-24T18:39:25.764Z,13.07
2019-03-24T18:41:53.891Z,13.43
2019-03-24T18:44:22.571Z,19.43
2019-03-24T18:46:50.959Z,20.40
2019-03-24T18:49:19.888Z,13.27
2019-03-24T18:51:48.109Z,23.30
2019-03-24T18:54:16.201Z,23.83
2019-03-24T18:56:44.815Z,18.33
2019-03-24T18:59:15.084Z,18.47
2019-03-24T19:01:43.709Z,19.77
2019-03-24T19:04:11.959Z,14.90
2019-03-24T19:06:40.701Z,19.33
2019-03-24T19:09:09.512Z,17.10
2019-03-24T19:11:37.918Z,14.93
2019-03-24T19:14:06.320Z,24.40
2019-03-24T19:16:35.437Z,14.17
2019-03-24T19:19:04.790Z,15.03
2019-03-24T19:21:33.193Z,15.03
2019-03-24T19:24:02.059Z,18.27
2019-03-24T19:26:30.959Z,19.13
2019-03-24T19:28:59.389Z,17.30
2019-03-24T19:31:28.126Z,17.00
2019-03-24T19:33:57.193Z,18.83
2019-03-24T19:36:26.258Z,14.30
2019-03-24T19:38:55.427Z,13.07
2019-03-24T19:41:23.793Z,12.33
2019-03-24T19:43:51.915Z,14.90
2019-03-24T19:46:20.311Z,13.07
2019-03-24T19:48:49.886Z,12.43
2019-03-24T19:51:18.102Z,13.20
2019-03-24T19:53:46.356Z,10.80
2019-03-24T19:56:14.741Z,10.43
2019-03-24T19:58:43.198Z,13.40
2019-03-24T20:01:12.473Z,13.20
2019-03-24T20:03:43.442Z,8.27
2019-03-24T20:06:11.726Z,10.10
2019-03-24T20:08:39.834Z,7.97
2019-03-24T20:11:08.287Z,7.57
2019-03-24T20:13:36.531Z,5.80
2019-03-24T20:16:05.099Z,6.87
2019-03-24T20:18:33.563Z,8.00
2019-03-24T20:21:01.928Z,6.50
2019-03-24T20:23:30.228Z,8.57
2019-03-24T20:25:58.839Z,7.90
2019-03-24T20:28:27.574Z,7.87
2019-03-24T20:30:55.949Z,7.07
2019-03-24T20:33:24.463Z,6.73
2019-03-24T20:35:53.503Z,9.97
2019-03-24T20:38:21.733Z,5.27
2019-03-24T20:40:50.631Z,7.63
2019-03-24T20:43:19.043Z,7.67
2019-03-24T20:45:47.269Z,7.10
2019-03-24T20:48:16.001Z,6.63
2019-03-24T20:50:44.810Z,7.83
2019-03-24T20:53:18.329Z,5.33
2019-03-24T20:55:44.262Z,4.10
2019-03-24T20:58:13.278Z,5.63
2019-03-24T21:00:42.232Z,6.53
2019-03-24T21:03:11.205Z,5.70
2019-03-24T21:05:39.370Z,3.40
2019-03-24T21:08:08.052Z,4.70
2019-03-24T21:10:36.862Z,6.20
2019-03-24T21:13:05.489Z,6.90
2019-03-24T21:15:34.096Z,6.80
2019-03-24T21:18:02.715Z,8.47
2019-03-24T21:20:31.417Z,4.03
2019-03-24T21:23:00.047Z,6.23
2019-03-24T21:25:28.480Z,4.30
2019-03-24T21:27:57.710Z,6.67
2019-03-24T21:30:37.331Z,4.77
2019-03-24T21:33:06.679Z,7.83
2019-03-24T21:35:36.205Z,4.20
2019-03-24T21:38:05.348Z,6.30
2019-03-24T21:40:34.293Z,6.80
2019-03-24T21:43:02.827Z,8.07
2019-03-24T21:45:32.287Z,5.50
2019-03-24T21:48:01.147Z,5.97
2019-03-24T21:50:30.334Z,6.00
2019-03-24T21:52:59.297Z,7.37
2019-03-24T21:55:27.579Z,4.80
2019-03-24T21:57:57.893Z,5.07
2019-03-24T22:00:33.079Z,5.87
2019-03-24T22:03:01.160Z,7.73
2019-03-24T22:05:30.088Z,7.83
2019-03-24T22:07:59.406Z,4.57
2019-03-24T22:10:28.365Z,6.67
2019-03-24T22:12:56.717Z,6.20
2019-03-24T22:15:25.477Z,6.03
2019-03-24T22:17:53.918Z,5.93
2019-03-24T22:20:22.513Z,6.57
2019-03-24T22:22:50.683Z,7.00
2019-03-24T22:25:19.079Z,4.37
2019-03-24T22:27:47.807Z,4.40
2019-03-24T22:30:16.613Z,4.30
2019-03-24T22:32:45.196Z,5.80
2019-03-24T22:35:13.699Z,7.73
2019-03-24T22:37:42.192Z,5.73
2019-03-24T22:40:11.027Z,7.37
2019-03-24T22:42:40.170Z,9.87
2019-03-24T22:45:10.169Z,4.27
2019-03-24T22:47:38.428Z,7.97
2019-03-24T22:50:07.647Z,7.30
2019-03-24T22:52:36.255Z,9.67
2019-03-24T22:55:05.609Z,7.70
2019-03-24T22:57:34.173Z,7.10
2019-03-24T23:00:03.482Z,4.83
2019-03-24T23:02:31.562Z,4.53
2019-03-24T23:05:00.452Z,8.63
2019-03-24T23:07:28.986Z,5.03
2019-03-24T23:09:57.504Z,8.93
2019-03-24T23:12:25.870Z,5.00
2019-03-24T23:14:54.407Z,9.83
2019-03-24T23:17:23.153Z,9.77
2019-03-24T23:19:51.124Z,7.50
2019-03-24T23:22:19.617Z,4.90
2019-03-24T23:24:48.004Z,9.13
2019-03-24T23:27:16.377Z,10.23
2019-03-24T23:29:45.291Z,5.57
2019-03-24T23:32:13.529Z,5.47
2019-03-24T23:34:42.568Z,7.53
2019-03-24T23:37:11.208Z,7.17
2019-03-24T23:39:39.437Z,6.00
2019-03-24T23:42:07.794Z,7.77
2019-03-24T23:44:35.982Z,10.00
2019-03-24T23:47:04.142Z,10.60
2019-03-24T23:49:32.362Z,11.07
2019-03-24T23:52:01.029Z,5.93
2019-03-24T23:54:29.632Z,8.90
2019-03-24T23:56:58.948Z,5.17
2019-03-24T23:59:27.543Z,4.60
